createdAt,value
2022-12-03T00:01:02.293Z,96041.44
2022-12-03T00:03:29.593Z,96028.13
2022-12-03T00:05:56.563Z,96051.28
2022-12-03T00:08:23.395Z,96053.94
2022-12-03T00:10:49.946Z,96036.44
2022-12-03T00:13:16.647Z,96023.63
2022-12-03T00:15:44.325Z,96005.84
2022-12-03T00:18:10.949Z,96060.59
2022-12-03T00:20:37.546Z,96023.53
2022-12-03T00:23:04.096Z,96031.47
2022-12-03T00:25:30.789Z,96031.63
2022-12-03T00:27:57.497Z,96005.81
2022-12-03T00:30:24.155Z,96010.75
2022-12-03T00:32:50.875Z,96045.84
2022-12-03T00:35:17.662Z,96010.00
2022-12-03T00:37:45.368Z,96070.31
2022-12-03T00:40:12.532Z,96042.38
2022-12-03T00:42:39.202Z,95979.59
2022-12-03T00:45:07.479Z,96080.50
2022-12-03T00:47:39.350Z,96069.06
2022-12-03T00:50:06.808Z,96053.97
2022-12-03T00:52:33.490Z,96023.06
2022-12-03T00:55:00.166Z,96042.59
2022-12-03T00:57:26.903Z,95978.88
2022-12-03T00:59:53.574Z,95947.19
2022-12-03T01:02:20.288Z,96048.03
2022-12-03T01:04:47.086Z,96090.22
2022-12-03T01:07:13.708Z,96060.16
2022-12-03T01:09:40.263Z,96061.19
2022-12-03T01:12:06.835Z,96034.69
2022-12-03T01:14:33.445Z,96026.38
2022-12-03T01:17:00.123Z,96054.84
2022-12-03T01:19:26.805Z,96048.34
2022-12-03T01:21:53.696Z,96022.94
2022-12-03T01:24:20.519Z,96056.94
2022-12-03T01:26:47.459Z,96016.28
2022-12-03T01:29:14.488Z,96042.41
2022-12-03T01:31:59.782Z,96039.34
2022-12-03T01:34:26.432Z,96031.59
2022-12-03T01:36:53.299Z,96037.97
2022-12-03T01:39:20.252Z,96032.50
2022-12-03T01:41:49.008Z,96047.16
2022-12-03T01:44:30.175Z,96011.22
2022-12-03T01:46:59.426Z,96024.03
2022-12-03T01:49:48.187Z,96031.28
2022-12-03T01:52:22.433Z,96035.44
2022-12-03T01:54:58.390Z,96031.56
2022-12-03T01:57:29.364Z,96052.25
2022-12-03T01:59:58.403Z,96039.09
2022-12-03T02:02:28.340Z,96056.16
2022-12-03T02:04:55.817Z,96064.28
2022-12-03T02:07:31.003Z,96035.69
2022-12-03T02:09:59.716Z,96036.31
2022-12-03T02:12:36.552Z,96031.59
2022-12-03T02:15:04.853Z,96035.59
2022-12-03T02:17:32.241Z,96045.38
2022-12-03T02:20:01.686Z,96031.22
2022-12-03T02:22:46.830Z,96046.53
2022-12-03T02:25:16.985Z,96042.06
2022-12-03T02:27:44.543Z,96044.56
2022-12-03T02:30:15.352Z,96063.03
2022-12-03T02:32:42.373Z,96041.59
2022-12-03T02:35:21.215Z,96035.78
2022-12-03T02:37:52.666Z,96022.69
2022-12-03T02:40:22.600Z,96032.09
2022-12-03T02:42:51.430Z,96048.66
2022-12-03T02:45:22.359Z,96050.63
2022-12-03T02:47:54.336Z,96040.94
2022-12-03T02:50:26.332Z,95996.22
2022-12-03T02:52:56.114Z,96060.63
2022-12-03T02:55:23.916Z,96045.09
2022-12-03T02:57:51.564Z,96048.53
2022-12-03T03:00:20.682Z,96046.94
2022-12-03T03:02:47.340Z,96028.69
2022-12-03T03:05:15.261Z,96041.16
2022-12-03T03:07:42.311Z,96064.44
2022-12-03T03:10:11.936Z,96040.91
2022-12-03T03:12:39.584Z,96041.91
2022-12-03T03:15:07.635Z,96042.38
2022-12-03T03:17:34.329Z,96075.69
2022-12-03T03:20:01.997Z,96015.69
2022-12-03T03:22:33.343Z,96055.88
2022-12-03T03:25:00.022Z,96027.09
2022-12-03T03:27:28.201Z,96013.28
2022-12-03T03:29:57.150Z,96023.88
2022-12-03T03:32:24.961Z,96042.72
2022-12-03T03:34:51.927Z,96009.47
2022-12-03T03:37:18.976Z,96009.28
2022-12-03T03:39:45.582Z,96028.16
2022-12-03T03:42:12.207Z,96037.19
2022-12-03T03:44:39.035Z,96030.91
2022-12-03T03:47:06.102Z,96040.44
2022-12-03T03:49:32.985Z,96027.69
2022-12-03T03:51:59.788Z,96027.78
2022-12-03T03:54:27.473Z,96020.53
2022-12-03T03:56:54.078Z,96027.19
2022-12-03T03:59:21.237Z,95993.97
2022-12-03T04:01:47.974Z,96042.59
2022-12-03T04:04:24.048Z,96017.88
2022-12-03T04:06:50.710Z,96017.09
2022-12-03T04:09:17.299Z,96028.97
2022-12-03T04:12:02.578Z,96023.13
2022-12-03T04:14:31.315Z,96040.16
2022-12-03T04:16:57.931Z,96036.59
2022-12-03T04:19:24.568Z,96015.22
2022-12-03T04:22:09.736Z,96025.59
2022-12-03T04:24:36.273Z,96019.41
2022-12-03T04:27:21.284Z,95985.81
2022-12-03T04:29:47.845Z,96006.44
2022-12-03T04:32:32.895Z,96025.19
2022-12-03T04:35:18.207Z,96032.00
2022-12-03T04:37:44.908Z,96028.09
2022-12-03T04:40:30.967Z,96024.22
2022-12-03T04:42:57.589Z,96041.19
2022-12-03T04:45:24.166Z,96025.34
2022-12-03T04:47:50.779Z,96019.59
2022-12-03T04:50:17.358Z,96033.56
2022-12-03T04:52:43.890Z,96047.22
2022-12-03T04:55:10.764Z,96048.72
2022-12-03T04:57:37.302Z,96031.53
2022-12-03T05:00:05.526Z,96053.50
2022-12-03T05:02:32.171Z,96004.09
2022-12-03T05:04:58.738Z,96020.19
2022-12-03T05:07:25.381Z,96038.97
2022-12-03T05:09:52.049Z,96064.91
2022-12-03T05:12:18.654Z,96044.50
2022-12-03T05:14:45.244Z,96056.78
2022-12-03T05:17:11.827Z,95987.59
2022-12-03T05:19:57.039Z,96045.66
2022-12-03T05:22:23.641Z,96048.94
2022-12-03T05:24:50.270Z,96053.78
2022-12-03T05:27:23.144Z,96031.31
2022-12-03T05:29:50.414Z,96019.88
2022-12-03T05:32:18.337Z,96047.47
2022-12-03T05:34:44.948Z,96046.72
2022-12-03T05:37:11.499Z,96045.91
2022-12-03T05:39:38.182Z,96044.66
2022-12-03T05:42:24.068Z,96045.00
2022-12-03T05:44:50.662Z,96041.28
2022-12-03T05:47:17.202Z,96012.38
2022-12-03T05:49:43.859Z,96050.03
2022-12-03T05:52:10.509Z,96061.97
2022-12-03T05:54:37.067Z,96008.06
2022-12-03T05:57:04.698Z,96041.19
2022-12-03T05:59:31.211Z,96064.09
2022-12-03T06:01:57.781Z,96029.47
2022-12-03T06:04:24.441Z,96065.03
2022-12-03T06:06:50.984Z,96065.91
2022-12-03T06:09:17.541Z,96053.28
2022-12-03T06:11:44.161Z,96037.91
2022-12-03T06:14:10.678Z,96043.22
2022-12-03T06:16:37.283Z,96031.81
2022-12-03T06:19:03.883Z,96023.78
2022-12-03T06:21:30.408Z,96026.19
2022-12-03T06:23:57.017Z,96036.25
2022-12-03T06:26:23.572Z,96033.28
2022-12-03T06:28:50.268Z,96015.94
2022-12-03T06:31:16.877Z,96024.09
2022-12-03T06:33:43.609Z,96036.50
2022-12-03T06:36:10.235Z,96038.06
2022-12-03T06:38:36.884Z,96037.91
2022-12-03T06:41:03.471Z,96019.63
2022-12-03T06:43:30.971Z,96045.19
2022-12-03T06:45:57.596Z,96039.88
2022-12-03T06:48:24.158Z,96040.75
2022-12-03T06:50:50.696Z,96041.81
2022-12-03T06:53:17.225Z,96021.34
2022-12-03T06:55:43.875Z,96036.47
2022-12-03T06:58:10.570Z,96035.47
2022-12-03T07:00:37.088Z,96070.53
2022-12-03T07:03:03.874Z,95990.56
2022-12-03T07:05:30.514Z,96035.91
2022-12-03T07:07:57.194Z,96056.31
2022-12-03T07:10:23.831Z,96028.34
2022-12-03T07:12:50.355Z,96036.78
2022-12-03T07:15:17.039Z,96022.25
2022-12-03T07:17:43.605Z,96021.09
2022-12-03T07:20:10.893Z,96022.00
2022-12-03T07:22:37.462Z,96027.63
2022-12-03T07:25:05.379Z,96024.97
2022-12-03T07:27:31.967Z,96037.06
2022-12-03T07:29:58.670Z,96019.72
2022-12-03T07:32:26.807Z,96012.84
2022-12-03T07:34:53.515Z,95983.03
2022-12-03T07:37:23.316Z,96037.91
2022-12-03T07:39:52.326Z,96061.13
2022-12-03T07:42:18.873Z,96018.63
2022-12-03T07:44:45.415Z,96010.81
2022-12-03T07:47:12.032Z,96037.94
2022-12-03T07:49:38.666Z,96019.13
2022-12-03T07:52:07.100Z,96010.19
2022-12-03T07:54:33.892Z,96031.53
2022-12-03T07:57:01.803Z,96026.97
2022-12-03T07:59:29.404Z,96062.53
2022-12-03T08:01:56.250Z,96055.91
2022-12-03T08:04:22.851Z,96050.84
2022-12-03T08:06:49.452Z,96001.53
2022-12-03T08:09:16.609Z,96013.94
2022-12-03T08:11:46.985Z,96048.03
2022-12-03T08:14:15.632Z,96033.56
2022-12-03T08:16:44.390Z,96026.69
2022-12-03T08:19:12.278Z,96039.84
2022-12-03T08:21:39.818Z,96031.41
2022-12-03T08:24:12.860Z,96034.97
2022-12-03T08:26:39.483Z,96009.91
2022-12-03T08:29:11.478Z,96018.50
2022-12-03T08:31:39.173Z,96017.34
2022-12-03T08:34:20.973Z,96025.34
2022-12-03T08:36:50.825Z,96023.88
2022-12-03T08:39:37.819Z,96023.59
2022-12-03T08:42:22.942Z,96020.63
2022-12-03T08:44:49.531Z,96034.69
2022-12-03T08:47:21.675Z,96023.44
2022-12-03T08:50:06.391Z,96029.81
2022-12-03T08:52:34.746Z,96038.97
2022-12-03T08:55:28.869Z,96035.16
2022-12-03T08:57:55.477Z,96038.72
2022-12-03T09:00:24.139Z,96032.19
2022-12-03T09:02:59.506Z,96043.03
2022-12-03T09:05:32.372Z,96036.47
2022-12-03T09:07:59.483Z,96023.19
2022-12-03T09:10:26.120Z,96027.31
2022-12-03T09:12:53.063Z,96030.84
2022-12-03T09:15:19.561Z,96025.50
2022-12-03T09:17:46.099Z,96027.31
2022-12-03T09:20:13.114Z,96018.88
2022-12-03T09:22:39.756Z,96015.91
2022-12-03T09:25:06.941Z,96021.69
2022-12-03T09:27:33.483Z,96027.47
2022-12-03T09:29:59.993Z,96027.16
2022-12-03T09:32:26.823Z,96010.69
2022-12-03T09:34:53.916Z,96022.31
2022-12-03T09:37:22.146Z,96020.84
2022-12-03T09:39:49.069Z,96024.22
2022-12-03T09:42:15.891Z,96017.59
2022-12-03T09:44:42.526Z,96032.25
2022-12-03T09:47:09.296Z,96016.06
2022-12-03T09:49:38.475Z,96010.00
2022-12-03T09:52:06.250Z,96011.94
2022-12-03T09:54:33.730Z,96013.97
2022-12-03T09:57:02.575Z,96007.94
2022-12-03T09:59:34.661Z,96010.91
2022-12-03T10:02:02.880Z,96001.00
2022-12-03T10:04:29.989Z,95997.56
2022-12-03T10:06:58.335Z,95997.56
2022-12-03T10:09:28.055Z,95993.44
2022-12-03T10:11:59.611Z,95988.25
2022-12-03T10:14:27.527Z,95973.75
2022-12-03T10:17:11.812Z,95968.56
2022-12-03T10:19:39.560Z,95979.09
2022-12-03T10:22:06.083Z,95979.09
2022-12-03T10:24:34.403Z,95978.38
2022-12-03T10:27:04.111Z,95975.13
2022-12-03T10:29:34.799Z,95977.38
2022-12-03T10:32:07.520Z,95969.66
2022-12-03T10:34:42.067Z,95960.47
2022-12-03T10:37:20.270Z,95949.94
2022-12-03T10:39:57.677Z,95947.59
2022-12-03T10:42:30.173Z,95947.44
2022-12-03T10:45:20.102Z,95948.16
2022-12-03T10:48:19.032Z,95949.06
2022-12-03T10:50:55.466Z,95944.31
2022-12-03T10:53:24.286Z,95942.28
2022-12-03T10:55:52.559Z,95948.94
2022-12-03T10:58:23.155Z,95941.09
2022-12-03T11:00:52.551Z,95935.94
2022-12-03T11:03:27.759Z,95937.09
2022-12-03T11:05:56.138Z,95942.59
2022-12-03T11:08:26.792Z,95939.03
2022-12-03T11:11:18.096Z,95934.16
2022-12-03T11:13:50.972Z,95928.66
2022-12-03T11:16:39.290Z,95923.03
2022-12-03T11:19:17.326Z,95928.09
2022-12-03T11:22:05.674Z,95930.31
2022-12-03T11:24:40.192Z,95923.94
2022-12-03T11:27:09.641Z,95926.75
2022-12-03T11:29:59.324Z,95933.13
2022-12-03T11:32:38.134Z,95933.88
2022-12-03T11:35:15.051Z,95942.91
2022-12-03T11:37:41.709Z,95937.59
2022-12-03T11:40:17.183Z,95939.50
2022-12-03T11:42:46.031Z,95935.06
2022-12-03T11:45:28.443Z,95936.38
2022-12-03T11:48:13.105Z,95931.19
2022-12-03T11:50:52.332Z,95922.16
2022-12-03T11:53:26.880Z,95923.78
2022-12-03T11:56:11.146Z,95916.69
2022-12-03T11:58:42.349Z,95923.66
2022-12-03T12:01:09.149Z,95931.78
2022-12-03T12:03:42.313Z,95926.16
2022-12-03T12:06:14.537Z,95932.53
2022-12-03T12:09:03.609Z,95931.38
2022-12-03T12:11:33.065Z,95930.63
2022-12-03T12:14:09.900Z,95919.94
2022-12-03T12:16:50.928Z,95917.72
2022-12-03T12:19:38.477Z,95911.22
2022-12-03T12:22:16.299Z,95909.56
2022-12-03T12:24:46.896Z,95903.78
2022-12-03T12:27:15.315Z,95901.72
2022-12-03T12:29:45.713Z,95903.94
2022-12-03T12:32:15.233Z,95900.69
2022-12-03T12:34:47.295Z,95896.53
2022-12-03T12:37:31.499Z,95872.38
2022-12-03T12:39:58.507Z,95892.84
2022-12-03T12:42:35.666Z,95888.53
2022-12-03T12:45:08.105Z,95897.88
2022-12-03T12:47:35.497Z,95881.28
2022-12-03T12:50:09.288Z,95873.28
2022-12-03T12:52:36.722Z,95874.91
2022-12-03T12:55:09.362Z,95868.22
2022-12-03T12:57:35.873Z,95867.06
2022-12-03T13:00:04.704Z,95849.72
2022-12-03T13:02:31.570Z,95859.22
2022-12-03T13:04:58.164Z,95851.19
2022-12-03T13:07:25.880Z,95856.25
2022-12-03T13:09:55.744Z,95873.00
2022-12-03T13:12:23.647Z,95859.25
2022-12-03T13:14:52.181Z,95864.09
2022-12-03T13:17:24.284Z,95855.38
2022-12-03T13:19:58.327Z,95856.84
2022-12-03T13:22:31.864Z,95849.44
2022-12-03T13:25:27.947Z,95847.84
2022-12-03T13:28:05.118Z,95846.91
2022-12-03T13:30:31.606Z,95838.63
2022-12-03T13:32:58.244Z,95848.56
2022-12-03T13:35:35.182Z,95840.88
2022-12-03T13:38:03.022Z,95827.81
2022-12-03T13:40:32.877Z,95830.78
2022-12-03T13:42:59.509Z,95851.50
2022-12-03T13:45:40.957Z,95828.56
2022-12-03T13:48:23.160Z,95838.34
2022-12-03T13:50:51.571Z,95837.44
2022-12-03T13:53:35.463Z,95837.56
2022-12-03T13:56:15.551Z,95827.50
2022-12-03T13:58:42.135Z,95835.06
2022-12-03T14:01:08.729Z,95837.13
2022-12-03T14:03:35.466Z,95837.28
2022-12-03T14:06:02.052Z,95834.16
2022-12-03T14:08:29.698Z,95836.41
2022-12-03T14:11:00.395Z,95842.47
2022-12-03T14:13:27.484Z,95835.94
2022-12-03T14:15:54.010Z,95836.84
2022-12-03T14:18:20.652Z,95825.44
2022-12-03T14:20:48.148Z,95821.72
2022-12-03T14:23:15.108Z,95828.97
2022-12-03T14:25:43.886Z,95832.84
2022-12-03T14:28:11.235Z,95836.84
2022-12-03T14:30:37.877Z,95822.47
2022-12-03T14:33:04.665Z,95835.94
2022-12-03T14:35:31.195Z,95833.25
2022-12-03T14:37:57.741Z,95828.66
2022-12-03T14:40:24.357Z,95828.81
2022-12-03T14:42:50.987Z,95834.59
2022-12-03T14:45:17.605Z,95823.03
2022-12-03T14:47:44.173Z,95824.97
2022-12-03T14:50:14.271Z,95822.75
2022-12-03T14:52:41.334Z,95815.44
2022-12-03T14:55:08.322Z,95821.53
2022-12-03T14:57:36.748Z,95825.06
2022-12-03T15:00:05.558Z,95821.22
2022-12-03T15:02:34.357Z,95835.03
2022-12-03T15:05:01.137Z,95832.19
2022-12-03T15:07:28.294Z,95830.28
2022-12-03T15:09:55.163Z,95804.81
2022-12-03T15:12:21.791Z,95826.88
2022-12-03T15:14:48.396Z,95825.41
2022-12-03T15:17:15.000Z,95819.47
2022-12-03T15:19:41.611Z,95812.94
2022-12-03T15:22:08.179Z,95825.81
2022-12-03T15:24:34.851Z,95823.16
2022-12-03T15:27:01.396Z,95816.06
2022-12-03T15:29:27.963Z,95812.78
2022-12-03T15:31:54.754Z,95821.97
2022-12-03T15:34:23.127Z,95822.41
2022-12-03T15:36:50.053Z,95821.06
2022-12-03T15:39:16.560Z,95827.44
2022-12-03T15:41:43.114Z,95822.84
2022-12-03T15:44:09.684Z,95823.44
2022-12-03T15:46:36.264Z,95827.31
2022-12-03T15:49:03.098Z,95805.06
2022-12-03T15:51:29.659Z,95811.44
2022-12-03T15:53:56.203Z,95807.72
2022-12-03T15:56:22.767Z,95820.63
2022-12-03T15:58:49.295Z,95807.00
2022-12-03T16:01:18.252Z,95803.44
2022-12-03T16:03:45.117Z,95810.53
2022-12-03T16:06:12.557Z,95802.72
2022-12-03T16:08:39.131Z,95807.16
2022-12-03T16:11:05.884Z,95826.09
2022-12-03T16:13:32.462Z,95810.84
2022-12-03T16:15:59.958Z,95819.75
2022-12-03T16:18:26.684Z,95821.66
2022-12-03T16:20:53.289Z,95813.47
2022-12-03T16:23:19.842Z,95817.78
2022-12-03T16:25:46.446Z,95824.00
2022-12-03T16:28:13.009Z,95805.91
2022-12-03T16:30:39.651Z,95816.88
2022-12-03T16:33:06.214Z,95813.16
2022-12-03T16:35:32.800Z,95816.28
2022-12-03T16:37:59.314Z,95816.75
2022-12-03T16:40:26.767Z,95814.78
2022-12-03T16:42:53.254Z,95799.25
2022-12-03T16:45:22.689Z,95815.41
2022-12-03T16:47:49.991Z,95814.81
2022-12-03T16:50:24.476Z,95811.41
2022-12-03T16:52:55.667Z,95812.59
2022-12-03T16:55:22.296Z,95820.59
2022-12-03T16:57:49.080Z,95814.22
2022-12-03T17:00:16.291Z,95812.75
2022-12-03T17:02:42.899Z,95812.44
2022-12-03T17:05:09.490Z,95816.88
2022-12-03T17:07:36.125Z,95803.09
2022-12-03T17:10:02.776Z,95814.06
2022-12-03T17:12:42.125Z,95806.38
2022-12-03T17:15:14.801Z,95809.19
2022-12-03T17:17:41.346Z,95798.38
2022-12-03T17:20:08.674Z,95800.44
2022-12-03T17:22:35.390Z,95795.28
2022-12-03T17:25:01.966Z,95800.88
2022-12-03T17:27:29.484Z,95791.84
2022-12-03T17:29:56.348Z,95783.13
2022-12-03T17:32:23.069Z,95786.94
2022-12-03T17:34:49.602Z,95794.22
2022-12-03T17:37:16.172Z,95785.63
2022-12-03T17:39:42.700Z,95794.06
2022-12-03T17:42:09.254Z,95758.22
2022-12-03T17:44:35.774Z,95782.22
2022-12-03T17:47:02.369Z,95774.66
2022-12-03T17:49:31.650Z,95785.31
2022-12-03T17:51:58.308Z,95784.84
2022-12-03T17:54:34.114Z,95791.97
2022-12-03T17:57:11.739Z,95781.31
2022-12-03T17:59:38.271Z,95790.22
2022-12-03T18:02:04.891Z,95783.84
2022-12-03T18:04:31.593Z,95773.75
2022-12-03T18:07:02.140Z,95783.94
2022-12-03T18:09:29.055Z,95789.75
2022-12-03T18:11:55.797Z,95779.22
2022-12-03T18:14:22.346Z,95764.41
2022-12-03T18:16:48.857Z,95775.84
2022-12-03T18:19:15.653Z,95761.63
2022-12-03T18:21:42.292Z,95752.25
2022-12-03T18:24:09.179Z,95776.16
2022-12-03T18:26:35.769Z,95771.88
2022-12-03T18:29:02.557Z,95779.13
2022-12-03T18:31:29.172Z,95786.22
2022-12-03T18:33:55.809Z,95784.13
2022-12-03T18:36:25.713Z,95768.31
2022-12-03T18:38:55.198Z,95788.75
2022-12-03T18:41:25.215Z,95765.38
2022-12-03T18:43:52.098Z,95763.13
2022-12-03T18:49:06.608Z,95751.47
2022-12-03T18:51:33.123Z,95756.63
2022-12-03T18:53:59.652Z,95761.53
2022-12-03T18:56:26.229Z,95764.50
2022-12-03T18:58:52.790Z,95752.94
2022-12-03T19:01:22.455Z,95762.41
2022-12-03T19:03:49.809Z,95767.88
2022-12-03T19:06:19.255Z,95777.06
2022-12-03T19:08:48.188Z,95779.88
2022-12-03T19:11:15.372Z,95773.50
2022-12-03T19:13:42.368Z,95780.44
2022-12-03T19:16:10.537Z,95774.84
2022-12-03T19:18:37.563Z,95771.44
2022-12-03T19:21:12.773Z,95769.66
2022-12-03T19:23:39.997Z,95771.59
2022-12-03T19:26:09.109Z,95751.88
2022-12-03T19:28:36.190Z,95773.66
2022-12-03T19:31:09.031Z,95754.28
2022-12-03T19:33:36.267Z,95759.03
2022-12-03T19:36:05.349Z,95751.63
2022-12-03T19:38:32.620Z,95752.78
2022-12-03T19:41:08.240Z,95746.00
2022-12-03T19:43:36.511Z,95753.09
2022-12-03T19:46:05.192Z,95751.94
2022-12-03T19:48:32.544Z,95758.28
2022-12-03T19:51:19.736Z,95751.34
2022-12-03T19:53:47.932Z,95755.47
2022-12-03T19:56:17.171Z,95761.25
2022-12-03T19:58:45.581Z,95739.63
2022-12-03T20:01:15.440Z,95748.81
2022-12-03T20:03:44.771Z,95758.28
2022-12-03T20:06:12.483Z,95760.22
2022-12-03T20:08:39.819Z,95765.25
2022-12-03T20:11:16.273Z,95755.03
2022-12-03T20:13:43.925Z,95750.59
2022-12-03T20:16:13.887Z,95754.44
2022-12-03T20:18:45.561Z,95752.38
2022-12-03T20:21:14.318Z,95741.13
2022-12-03T20:23:41.814Z,95741.28
2022-12-03T20:26:09.747Z,95742.59
2022-12-03T20:28:36.640Z,95738.47
2022-12-03T20:31:09.578Z,95732.69
2022-12-03T20:33:38.118Z,95714.47
2022-12-03T20:36:05.029Z,95720.69
2022-12-03T20:38:32.018Z,95719.97
2022-12-03T20:41:03.117Z,95715.81
2022-12-03T20:43:29.809Z,95715.97
2022-12-03T20:46:02.385Z,95726.91
2022-12-03T20:48:29.699Z,95718.63
2022-12-03T20:50:56.231Z,95722.91
2022-12-03T20:53:25.383Z,95698.94
2022-12-03T20:55:56.709Z,95715.66
2022-12-03T20:58:23.255Z,95708.84
2022-12-03T21:00:49.948Z,95719.06
2022-12-03T21:03:16.652Z,95699.94
2022-12-03T21:05:43.968Z,95704.69
2022-12-03T21:08:11.693Z,95668.13
2022-12-03T21:10:46.598Z,95713.31
2022-12-03T21:13:18.164Z,95681.59
2022-12-03T21:15:45.525Z,95689.47
2022-12-03T21:18:14.724Z,95638.97
2022-12-03T21:20:44.064Z,95690.34
2022-12-03T21:23:11.255Z,95699.38
2022-12-03T21:25:38.800Z,95680.13
2022-12-03T21:28:07.259Z,95670.22
2022-12-03T21:30:37.676Z,95685.19
2022-12-03T21:33:04.495Z,95686.06
2022-12-03T21:35:31.307Z,95655.88
2022-12-03T21:37:58.250Z,95695.22
2022-12-03T21:40:25.001Z,95708.72
2022-12-03T21:42:51.719Z,95636.19
2022-12-03T21:45:18.538Z,95649.81
2022-12-03T21:47:48.649Z,95663.13
2022-12-03T21:50:15.540Z,95665.94
2022-12-03T21:52:42.215Z,95657.63
2022-12-03T21:55:11.934Z,95675.25
2022-12-03T21:57:38.636Z,95661.19
2022-12-03T22:00:08.223Z,95696.72
2022-12-03T22:02:43.895Z,95660.91
2022-12-03T22:05:11.874Z,95681.16
2022-12-03T22:07:39.784Z,95650.69
2022-12-03T22:10:15.511Z,95680.16
2022-12-03T22:12:45.255Z,95710.94
2022-12-03T22:15:18.113Z,95700.44
2022-12-03T22:17:51.550Z,95693.19
2022-12-03T22:20:18.359Z,95685.63
2022-12-03T22:22:48.046Z,95649.06
2022-12-03T22:25:17.047Z,95690.38
2022-12-03T22:27:43.735Z,95682.38
2022-12-03T22:30:10.618Z,95679.13
2022-12-03T22:32:37.267Z,95654.09
2022-12-03T22:35:04.152Z,95668.03
2022-12-03T22:37:32.744Z,95686.97
2022-12-03T22:40:05.473Z,95630.56
2022-12-03T22:42:33.288Z,95669.22
2022-12-03T22:47:54.010Z,95655.16
2022-12-03T22:50:20.626Z,95660.63
2022-12-03T22:52:47.281Z,95662.25
2022-12-03T22:55:13.980Z,95644.78
2022-12-03T22:57:40.587Z,95671.41
2022-12-03T23:00:12.976Z,95683.56
2022-12-03T23:02:39.738Z,95681.06
2022-12-03T23:05:06.965Z,95666.22
2022-12-03T23:07:33.589Z,95655.41
2022-12-03T23:10:00.249Z,95654.84
2022-12-03T23:12:29.821Z,95645.38
2022-12-03T23:14:56.403Z,95657.50
2022-12-03T23:17:24.922Z,95655.75
2022-12-03T23:19:51.871Z,95629.66
2022-12-03T23:22:18.598Z,95630.13
2022-12-03T23:24:45.666Z,95648.75
2022-12-03T23:27:12.278Z,95629.38
2022-12-03T23:29:38.889Z,95620.03
2022-12-03T23:32:05.638Z,95620.19
2022-12-03T23:34:32.490Z,95585.13
2022-12-03T23:36:59.118Z,95626.56
2022-12-03T23:39:25.697Z,95643.59
2022-12-03T23:41:52.453Z,95621.22
2022-12-03T23:44:19.061Z,95632.34
2022-12-03T23:46:45.744Z,95644.03
2022-12-03T23:49:12.349Z,95614.91
2022-12-03T23:51:38.874Z,95584.25
2022-12-03T23:54:05.702Z,95605.69
2022-12-03T23:56:32.479Z,95605.69
2022-12-03T23:58:59.144Z,95608.66
